Conway, MI (49722)

3:17 PM EST on December 06, 2016 (GMT -0500)
Markspm | | Change Station

Elev 745 ft 45.43 °N, 84.91 °W | Updated 7 minutes ago

Clear
Clear
40.3 °F
Feels Like 40 °F
N
0.0
Wind Variable Wind from WNW
Gusts 3.0 mph

Today
High -- | Low -- °F
--% Chance of Precip.
Yesterday
High -- | Low -- °F
Precip. -- in
Pressure 29.68 in
Visibility 10.0 miles
Clouds Clear
Windchill 40 °F
Dew Point 34 °F
Humidity 77%
Rainfall 0.00 in
Snow Depth Not available.
8:04 AM 4:56 PM
Waxing Crescent, 44% visible
METAR KMGN 062014Z AUTO 11009G14KT 10SM CLR 05/00 A2968 RMK AO2 T00561005
Pressure 29.68 in
Visibility 10.0 miles
Clouds Clear
Windchill 40 °F
Dew Point 34 °F
Humidity 77%
Rainfall 0.00 in
Snow Depth Not available.
8:04 AM 4:56 PM
Waxing Crescent, 44% visible
METAR KMGN 062014Z AUTO 11009G14KT 10SM CLR 05/00 A2968 RMK AO2 T00561005

10-Day Weather Forecast

Almanac

Astronomy

Dec. 06, 2016 Rise Set
Actual Time
Civil Twilight
Nautical Twilight
Astronomical Twilight
Moon
Length of Visible Light
Length of Day
Tomorrow will be .
, % of the Moon is Illuminated

Today's Extremes

State Highs State Lows

Community

WunderPhotos

Upload Photos

1,956,022 photos uploaded!

WunderBlog® & News

Nearby

Air Quality

  Air Quality AQ Index Pollutant
Not available.

Snow Depth

Station Depth Elevation

Earthquake Activity

City Distance Mag. Time & Date
Minimum magnitude displayed is 2.5.

Coastal Water Temperatures

Place Temperature

Stations

Nearby Weather Stations

Station Location Temp. Windchill Dew Point Humidity Wind Precip. Elev Updated Type
                   

Watches & Warnings

There are currently no watches in effect.